Time;durP1;ratioP1;P1;durP2;ratioP2;P2;SDS_P1;SDS_P2;PMS_P1;PMS_P2;Temp;Humidity;BMP_temperature;BMP_pressure;BME280_temperature;BME280_humidity;BME280_pressure;Samples;Min_cycle;Max_cycle;Signal;HPM_P1;HPM_P2
2022/08/01 00:01:16;;;;;;;12.57;8.07;;;21.40;99.90;;;21.82;91.23;101620.75;4880838;29;20045;-60
2022/08/01 00:03:46;;;;;;;12.23;8.07;;;21.40;99.90;;;21.77;91.03;101605.66;4879880;29;20465;-59
2022/08/01 00:06:14;;;;;;;10.10;7.77;;;21.40;99.90;;;21.70;91.43;101614.94;4880786;29;20443;-60
2022/08/01 00:08:43;;;;;;;11.85;8.85;;;21.30;99.90;;;21.73;91.86;101617.50;4880787;29;20045;-59
2022/08/01 00:11:11;;;;;;;11.25;8.38;;;21.30;99.90;;;21.67;92.22;101610.53;4881142;29;20079;-61
2022/08/01 00:13:40;;;;;;;11.68;8.50;;;21.30;99.90;;;21.74;91.88;101616.56;4880641;29;20041;-60
2022/08/01 00:16:08;;;;;;;14.45;8.63;;;21.30;99.90;;;21.69;91.98;101614.03;4880169;29;20052;-60
2022/08/01 00:18:37;;;;;;;12.70;8.65;;;21.30;99.90;;;21.71;92.58;101613.97;4879246;29;20185;-60
2022/08/01 00:21:06;;;;;;;14.55;8.93;;;21.30;99.90;;;21.79;92.29;101617.25;4880806;29;20053;-60
2022/08/01 00:23:35;;;;;;;15.40;9.87;;;21.40;99.90;;;21.79;91.98;101615.47;4880569;29;20049;-60
2022/08/01 00:26:03;;;;;;;10.73;8.40;;;21.40;99.90;;;21.85;91.54;101614.38;4880425;29;20297;-60
2022/08/01 00:28:31;;;;;;;14.38;8.52;;;21.40;99.90;;;21.73;92.02;101623.78;4880433;29;20598;-60
2022/08/01 00:31:00;;;;;;;11.13;9.07;;;21.30;99.90;;;21.84;91.21;101616.19;4878653;29;20052;-60
2022/08/01 00:33:28;;;;;;;12.23;9.80;;;21.40;99.90;;;21.79;91.18;101626.22;4880304;29;20076;-60
2022/08/01 00:35:56;;;;;;;10.48;8.80;;;21.40;99.90;;;21.75;91.49;101626.41;4880259;29;20041;-60
2022/08/01 00:38:26;;;;;;;12.07;8.70;;;21.40;99.90;;;21.73;91.93;101615.69;4880337;29;20080;-60
2022/08/01 00:40:54;;;;;;;13.27;9.37;;;21.30;99.90;;;21.67;92.39;101612.34;4880467;29;20128;-60
2022/08/01 00:43:23;;;;;;;12.90;9.63;;;21.30;99.90;;;21.79;92.44;101619.97;4880389;29;20045;-60
2022/08/01 00:45:51;;;;;;;11.48;8.63;;;21.40;99.90;;;21.77;93.20;101619.13;4880496;29;20084;-60
2022/08/01 00:48:19;;;;;;;13.32;8.88;;;21.30;99.90;;;21.58;93.83;101618.97;4880038;29;20137;-60
2022/08/01 00:50:48;;;;;;;9.48;6.90;;;21.20;99.90;;;21.41;94.54;101618.69;4880053;29;20150;-60
2022/08/01 00:53:16;;;;;;;9.73;6.57;;;21.10;99.90;;;21.18;95.63;101622.25;4880217;29;20546;-60
2022/08/01 00:55:48;;;;;;;7.32;5.65;;;20.90;99.90;;;21.25;95.47;101617.53;4880464;29;20135;-60
2022/08/01 00:58:16;;;;;;;;;;;20.80;99.90;;;21.24;95.34;101616.63;4880539;29;20097;-60
2022/08/01 01:00:45;;;;;;;6.50;5.55;;;20.80;99.90;;;21.10;96.33;101615.41;4894533;29;20312;-60
2022/08/01 01:03:22;;;;;;;6.10;4.57;;;20.70;99.90;;;21.02;96.49;101610.25;4880366;29;20048;-59
2022/08/01 01:06:24;;;;;;;4.75;4.28;;;20.70;99.90;;;21.01;97.38;101615.69;4879841;29;20081;-60
2022/08/01 01:09:21;;;;;;;5.28;4.40;;;20.60;99.90;;;20.97;97.81;101608.63;4879765;29;20053;-60
2022/08/01 01:12:03;;;;;;;5.20;4.70;;;20.60;99.90;;;21.07;97.88;101608.28;4879624;29;20123;-60
2022/08/01 01:14:44;;;;;;;5.22;4.68;;;20.60;99.90;;;21.22;97.80;101604.16;4879680;29;20137;-60
2022/08/01 01:17:16;;;;;;;7.50;4.75;;;20.70;99.90;;;21.31;97.10;101598.47;4880215;29;20061;-60
2022/08/01 01:20:09;;;;;;;6.28;4.57;;;20.90;99.90;;;21.44;96.62;101605.13;4879542;29;20452;-60
2022/08/01 01:22:55;;;;;;;6.15;5.60;;;21.00;99.90;;;21.43;96.52;101598.88;4879594;29;20053;-60
2022/08/01 01:25:47;;;;;;;6.93;4.95;;;21.00;99.90;;;21.55;95.95;101605.59;4880113;29;20045;-60
2022/08/01 01:28:27;;;;;;;7.15;5.10;;;21.10;99.90;;;21.58;96.11;101613.59;4879843;29;20069;-60
2022/08/01 01:30:59;;;;;;;6.30;5.13;;;21.20;99.90;;;21.61;96.21;101618.84;4879429;29;20076;-60
2022/08/01 01:33:31;;;;;;;7.80;5.50;;;21.20;99.90;;;21.63;95.64;101595.44;4879706;29;20048;-60
2022/08/01 01:36:04;;;;;;;10.30;5.68;;;21.30;99.90;;;21.80;95.21;101601.06;4879463;29;20104;-60
2022/08/01 01:38:43;;;;;;;5.80;4.80;;;21.40;99.90;;;21.97;94.22;101608.50;4879610;29;20049;-59
2022/08/01 01:41:14;;;;;;;7.55;5.50;;;21.50;99.90;;;22.03;93.51;101611.81;4879259;29;20104;-60
2022/08/01 01:43:42;;;;;;;;;;;21.60;99.90;;;22.02;92.93;101607.38;4880325;29;20076;-60
2022/08/01 01:46:13;;;;;;;8.75;5.00;;;21.70;99.90;;;22.04;92.64;101613.59;4879646;29;19923;-60
2022/08/01 01:48:46;;;;;;;4.80;4.38;;;21.70;99.90;;;22.04;91.89;101613.59;4878313;29;20139;-60
2022/08/01 01:51:16;;;;;;;6.90;5.22;;;21.70;99.90;;;21.78;92.40;101618.19;4879246;29;20049;-60
2022/08/01 01:53:46;;;;;;;5.40;4.90;;;21.50;99.90;;;21.68;91.46;101561.09;4879276;29;20455;-60
2022/08/01 01:56:17;;;;;;;7.25;5.18;;;21.60;99.90;;;22.00;90.64;101619.16;4879465;29;20049;-60
2022/08/01 01:58:46;;;;;;;6.28;5.60;;;21.60;99.90;;;21.79;90.51;101620.84;4879701;29;20487;-60
2022/08/01 02:01:17;;;;;;;9.10;5.85;;;21.50;99.90;;;21.76;91.00;101625.44;4879060;29;20049;-60
2022/08/01 02:04:06;;;;;;;6.68;5.60;;;21.40;99.90;;;21.66;92.14;101619.53;4879185;29;20081;-60
2022/08/01 02:06:35;;;;;;;6.82;5.72;;;21.30;99.90;;;21.70;91.83;101620.31;4879390;29;20045;-60
2022/08/01 02:09:04;;;;;;;10.13;5.80;;;21.30;99.90;;;21.65;92.21;101620.47;4879097;29;20084;-60
2022/08/01 02:11:33;;;;;;;6.25;5.40;;;21.20;99.90;;;21.58;92.86;101616.28;4879099;29;20598;-60
2022/08/01 02:14:04;;;;;;;7.70;5.70;;;21.10;99.90;;;21.69;92.14;101619.44;4879639;29;20622;-60
2022/08/01 02:16:38;;;;;;;9.95;5.88;;;21.30;99.90;;;21.77;92.55;101622.72;4879117;29;20083;-60
2022/08/01 02:19:06;;;;;;;9.20;5.53;;;21.30;99.90;;;21.58;92.23;101622.50;4877637;29;20414;-60
2022/08/01 02:21:41;;;;;;;7.07;5.40;;;21.20;99.90;;;21.60;92.57;101617.09;4879024;29;20052;-60
2022/08/01 02:24:15;;;;;;;5.60;4.97;;;21.20;99.90;;;21.50;93.45;101623.75;4879312;29;20080;-59
2022/08/01 02:26:50;;;;;;;9.35;5.28;;;21.10;99.90;;;21.54;92.46;101612.78;4878974;29;20097;-60
2022/08/01 02:29:27;;;;;;;7.22;4.55;;;21.10;99.90;;;21.46;93.35;101617.63;4878953;29;20470;-60
2022/08/01 02:31:59;;;;;;;8.88;5.13;;;21.00;99.90;;;21.50;93.15;101626.44;4879499;29;20041;-59
2022/08/01 02:34:31;;;;;;;5.38;4.65;;;21.00;99.90;;;21.40;93.39;101631.31;4878978;29;20124;-60
2022/08/01 02:37:01;;;;;;;6.85;4.78;;;21.00;99.90;;;21.11;93.91;101633.28;4877897;29;20049;-60
2022/08/01 02:39:31;;;;;;;7.60;4.50;;;20.90;99.90;;;21.27;94.21;101615.66;4878830;29;20139;-60
2022/08/01 02:42:06;;;;;;;4.93;4.25;;;20.90;99.90;;;21.15;94.62;101606.22;4878871;29;20455;-60
2022/08/01 02:44:39;;;;;;;5.65;4.53;;;20.80;99.90;;;21.13;93.95;101601.81;4878700;29;20131;-60
2022/08/01 02:47:10;;;;;;;4.47;4.00;;;20.80;99.90;;;21.33;94.21;101616.28;4877668;29;20144;-59
2022/08/01 02:49:44;;;;;;;6.82;4.25;;;20.90;99.90;;;21.35;93.28;101624.34;4878766;29;20059;-60
2022/08/01 02:52:16;;;;;;;4.65;3.55;;;20.90;99.90;;;21.39;92.60;101624.16;4879046;29;20059;-59
2022/08/01 02:54:48;;;;;;;4.28;3.65;;;21.00;99.90;;;21.34;93.21;101626.13;4881828;29;20132;-60
2022/08/01 02:57:19;;;;;;;4.85;3.58;;;20.90;99.90;;;21.24;93.39;101629.19;4881060;29;20049;-59
2022/08/01 02:59:50;;;;;;;5.03;3.55;;;20.80;99.90;;;21.10;93.42;101618.09;4881033;29;20059;-59
2022/08/01 03:02:20;;;;;;;;;;;20.80;99.90;;;21.19;94.35;101631.19;4882745;29;20488;-60
2022/08/01 03:04:51;;;;;;;3.87;3.27;;;20.80;99.90;;;21.20;93.20;101630.25;4881928;29;19958;-60
2022/08/01 03:07:24;;;;;;;5.95;3.70;;;20.80;99.90;;;21.19;93.81;101629.41;4882070;29;20059;-59
2022/08/01 03:10:07;;;;;;;4.25;3.70;;;20.80;99.90;;;21.36;93.24;101623.38;4881850;29;20049;-60
2022/08/01 03:12:37;;;;;;;4.30;3.80;;;20.90;99.90;;;21.39;92.61;101628.63;4882289;29;20145;-59
2022/08/01 03:15:07;;;;;;;3.70;3.40;;;21.00;99.90;;;21.29;91.91;101627.25;4881845;29;20425;-60
2022/08/01 03:17:41;;;;;;;3.53;3.22;;;20.90;99.90;;;21.20;92.35;101631.13;4881881;29;20518;-60
2022/08/01 03:20:15;;;;;;;3.13;2.83;;;20.80;99.90;;;21.29;91.59;101625.41;4882054;29;20077;-59
2022/08/01 03:22:44;;;;;;;4.15;3.13;;;20.90;99.90;;;21.27;91.11;101629.13;4880584;29;20053;-60
2022/08/01 03:25:14;;;;;;;4.17;3.37;;;20.90;99.90;;;21.41;90.69;101624.09;4881873;29;20067;-60
2022/08/01 03:27:46;;;;;;;4.07;3.33;;;20.90;99.90;;;21.49;89.75;101632.75;4881713;29;20049;-60
2022/08/01 03:30:15;;;;;;;5.97;3.00;;;21.00;99.90;;;21.54;89.54;101638.88;4881779;29;20053;-59
2022/08/01 03:32:45;;;;;;;4.72;3.30;;;21.10;99.90;;;21.50;90.24;101634.53;4881417;29;20041;-60
2022/08/01 03:35:14;;;;;;;5.78;3.40;;;21.10;99.90;;;21.44;89.93;101629.38;4881930;29;20072;-60
2022/08/01 03:37:46;;;;;;;5.55;3.17;;;21.10;99.90;;;21.50;90.10;101640.78;4881320;29;20101;-60
2022/08/01 03:40:40;;;;;;;6.10;3.78;;;21.10;99.90;;;21.45;90.33;101634.69;4881487;29;20055;-60
2022/08/01 03:43:17;;;;;;;4.60;3.90;;;21.10;99.90;;;21.58;89.99;101639.63;4881577;29;20056;-60
2022/08/01 03:45:50;;;;;;;5.07;3.78;;;21.20;99.90;;;21.67;89.32;101641.97;4881458;29;20077;-59
2022/08/01 03:48:29;;;;;;;5.85;3.63;;;21.30;99.90;;;21.68;88.95;101641.03;4881265;29;20093;-60
2022/08/01 03:50:59;;;;;;;4.72;3.60;;;21.30;99.90;;;21.59;89.84;101636.88;4881088;29;20089;-60
2022/08/01 03:53:32;;;;;;;5.50;3.60;;;21.20;99.90;;;21.56;90.21;101632.47;4881845;29;20075;-59
2022/08/01 03:56:03;;;;;;;6.32;3.50;;;21.20;99.90;;;21.68;90.08;101632.97;4881249;29;20049;-60
2022/08/01 03:58:32;;;;;;;5.85;3.55;;;21.20;99.90;;;21.76;89.53;101628.13;4880993;29;20080;-60
2022/08/01 04:01:00;;;;;;;5.63;3.40;;;21.30;99.90;;;21.64;89.46;101628.63;4880840;29;20068;-60
2022/08/01 04:03:30;;;;;;;5.47;3.63;;;21.20;99.90;;;21.70;89.53;101631.09;4881361;29;20148;-60
2022/08/01 04:05:58;;;;;;;6.18;3.55;;;21.20;99.90;;;21.58;89.26;101628.84;4880016;29;20120;-59
2022/08/01 04:08:36;;;;;;;6.97;3.50;;;21.20;99.90;;;21.55;90.08;101635.22;4881058;29;20509;-59
2022/08/01 04:11:04;;;;;;;6.00;3.25;;;21.10;99.90;;;21.58;89.80;101636.94;4880922;29;20083;-58
2022/08/01 04:13:33;;;;;;;3.40;3.13;;;21.20;99.90;;;21.51;90.08;101630.88;4880585;29;20037;-58
2022/08/01 04:16:06;;;;;;;3.55;3.20;;;21.10;99.90;;;21.47;89.86;101645.41;4879778;29;20057;-59
2022/08/01 04:18:36;;;;;;;5.78;3.47;;;21.10;99.90;;;21.57;90.16;101641.44;4880767;29;20041;-59
2022/08/01 04:21:04;;;;;;;3.67;3.27;;;21.10;99.90;;;21.60;89.54;101641.34;4879611;29;20120;-59
2022/08/01 04:23:35;;;;;;;4.35;3.38;;;21.10;99.90;;;21.67;88.91;101648.25;4880422;29;20037;-59
2022/08/01 04:26:05;;;;;;;4.20;3.33;;;21.20;99.90;;;21.72;88.50;101646.25;4880708;29;20131;-58
2022/08/01 04:28:37;;;;;;;3.60;3.30;;;21.30;99.90;;;21.65;88.70;101639.34;4880525;29;20218;-59
2022/08/01 04:31:11;;;;;;;3.78;3.45;;;21.30;99.90;;;21.66;89.17;101635.69;4880386;29;20068;-58
2022/08/01 04:33:46;;;;;;;4.25;3.60;;;21.20;99.90;;;21.43;89.53;101614.13;4880551;29;20395;-59
2022/08/01 04:36:16;;;;;;;5.18;3.50;;;21.20;99.90;;;21.54;90.27;101636.19;4880223;29;20459;-59
2022/08/01 04:38:50;;;;;;;5.13;3.85;;;21.20;99.90;;;21.69;89.66;101646.38;4880474;29;20152;-59
2022/08/01 04:41:19;;;;;;;5.32;3.80;;;21.30;99.90;;;21.72;89.30;101637.31;4880486;29;20121;-59
2022/08/01 04:43:48;;;;;;;4.65;3.60;;;21.30;99.90;;;21.74;89.35;101651.59;4880435;29;20079;-59
2022/08/01 04:46:17;;;;;;;4.25;3.75;;;21.30;99.90;;;21.66;90.30;101651.00;4880481;29;20351;-59
2022/08/01 04:48:48;;;;;;;4.78;3.53;;;21.30;99.90;;;21.72;90.39;101650.78;4880262;29;20072;-59
2022/08/01 04:51:21;;;;;;;3.95;3.40;;;21.20;99.90;;;21.74;90.26;101655.13;4879980;29;20060;-59
2022/08/01 04:53:51;;;;;;;3.88;3.50;;;21.30;99.90;;;21.73;89.85;101626.47;4880506;29;20060;-59
2022/08/01 04:56:20;;;;;;;5.25;3.88;;;21.40;99.90;;;21.89;89.30;101654.59;4880079;29;20415;-59
2022/08/01 04:59:39;;;;;;;4.88;4.25;;;21.50;99.90;;;21.82;89.42;101662.97;4880105;29;20132;-60
2022/08/01 05:01:51;;;;;;;5.80;3.80;;;21.40;99.90;;;21.82;89.37;101655.75;4879564;29;20041;-59
2022/08/01 05:04:21;;;;;;;3.90;3.60;;;21.40;99.90;;;21.87;89.70;101659.19;4880103;29;20108;-59
2022/08/01 05:06:49;;;;;;;4.33;3.93;;;21.40;99.90;;;21.90;89.81;101660.84;4879771;29;20038;-60
2022/08/01 05:09:17;;;;;;;4.35;3.92;;;21.50;99.90;;;21.83;90.14;101667.44;4878721;29;20052;-60
2022/08/01 05:11:46;;;;;;;4.10;3.67;;;21.40;99.90;;;21.82;90.60;101658.47;4879611;29;20068;-60
2022/08/01 05:14:14;;;;;;;4.45;3.67;;;21.40;99.90;;;21.77;91.71;101655.03;4879879;29;20059;-59
2022/08/01 05:16:42;;;;;;;4.50;3.83;;;21.40;99.90;;;21.87;91.47;101653.78;4879483;29;20049;-60
2022/08/01 05:19:11;;;;;;;4.30;3.90;;;21.40;99.90;;;21.72;92.21;101664.25;4879848;29;20464;-60
2022/08/01 05:21:40;;;;;;;9.38;5.43;;;21.40;99.90;;;21.68;93.14;101663.44;4879461;29;20043;-59
2022/08/01 05:24:09;;;;;;;8.23;4.53;;;21.30;99.90;;;21.86;92.40;101649.31;4879820;29;20080;-59
2022/08/01 05:26:37;;;;;;;6.15;4.95;;;21.40;99.90;;;21.98;91.86;101658.75;4879455;29;20490;-59
2022/08/01 05:29:06;;;;;;;5.47;4.30;;;21.50;99.90;;;22.00;91.82;101662.25;4879390;29;20643;-59
2022/08/01 05:31:34;;;;;;;5.68;4.53;;;21.60;99.90;;;22.13;91.33;101650.94;4879649;29;20053;-59
2022/08/01 05:34:03;;;;;;;5.30;4.80;;;21.70;99.90;;;22.23;90.64;101663.13;4879693;29;20116;-59
2022/08/01 05:36:31;;;;;;;4.40;4.00;;;21.80;99.90;;;22.28;90.40;101669.19;4878367;29;20048;-60
2022/08/01 05:39:01;;;;;;;4.90;4.40;;;21.90;99.90;;;22.35;90.11;101662.66;4879489;29;20076;-59
2022/08/01 05:41:29;;;;;;;4.75;4.35;;;22.00;99.90;;;22.37;89.62;101670.66;4879263;29;20501;-59
2022/08/01 05:43:58;;;;;;;4.55;4.15;;;22.00;99.90;;;22.40;89.32;101666.03;4879283;29;20045;-59
2022/08/01 05:46:26;;;;;;;7.15;4.45;;;22.00;99.90;;;22.28;89.21;101677.28;4879239;29;20057;-59
2022/08/01 05:48:55;;;;;;;4.75;4.35;;;22.00;99.90;;;22.19;89.53;101674.06;4877883;29;20089;-59
2022/08/01 05:51:23;;;;;;;6.97;4.47;;;21.80;99.90;;;22.21;89.78;101674.91;4879750;29;20052;-60
2022/08/01 05:53:52;;;;;;;6.82;4.72;;;21.80;99.90;;;22.14;89.34;101682.34;4879325;29;20056;-59
2022/08/01 05:56:22;;;;;;;7.25;4.88;;;21.80;99.90;;;22.05;89.52;101682.69;4879187;29;20071;-59
2022/08/01 05:58:51;;;;;;;13.13;4.95;;;21.70;99.90;;;21.93;90.22;101679.63;4879732;29;20049;-59
2022/08/01 06:01:20;;;;;;;8.18;5.15;;;21.60;99.90;;;21.38;91.91;101672.66;4879087;29;20480;-59
2022/08/01 06:03:49;;;;;;;6.38;5.10;;;21.30;99.90;;;21.46;93.07;101697.50;4879191;29;20057;-60
2022/08/01 06:06:17;;;;;;;9.07;5.07;;;21.10;99.90;;;21.63;92.77;101691.50;4879425;29;20105;-59
2022/08/01 06:08:52;;;;;;;8.63;4.88;;;21.30;99.90;;;21.69;93.05;101697.53;4879637;29;20060;-59
2022/08/01 06:11:22;;;;;;;10.75;5.80;;;21.30;99.90;;;21.70;93.12;101701.97;4879063;29;20491;-59
2022/08/01 06:13:50;;;;;;;8.07;4.32;;;21.40;99.90;;;21.80;93.03;101702.50;4879089;29;20087;-59
2022/08/01 06:16:18;;;;;;;5.65;4.55;;;21.40;99.90;;;21.78;92.84;101694.50;4879559;29;20052;-59
2022/08/01 06:18:47;;;;;;;7.38;5.47;;;21.40;99.90;;;21.81;92.77;101702.50;4879244;29;20048;-59
2022/08/01 06:21:15;;;;;;;4.93;4.53;;;21.40;99.90;;;21.80;92.72;101697.13;4878910;29;20140;-59
2022/08/01 06:23:43;;;;;;;5.55;4.90;;;21.40;99.90;;;21.85;92.48;101698.78;4878991;29;20041;-59
2022/08/01 06:26:12;;;;;;;7.35;5.00;;;21.50;99.90;;;21.89;91.86;101700.38;4879218;29;20390;-59
2022/08/01 06:28:41;;;;;;;11.02;5.00;;;21.50;99.90;;;21.94;91.86;101708.31;4880619;29;20105;-59
2022/08/01 06:31:12;;;;;;;5.60;4.95;;;21.60;99.90;;;21.99;91.80;101707.19;4882771;29;20049;-59
2022/08/01 06:33:40;;;;;;;;;;;21.60;99.90;;;21.95;91.19;101708.25;4882898;29;20049;-59
2022/08/01 06:36:08;;;;;;;5.63;4.60;;;21.60;99.90;;;22.02;90.81;101712.47;4882673;29;19924;-59
2022/08/01 06:38:38;;;;;;;5.10;4.60;;;21.60;99.90;;;21.96;90.79;101712.72;4882291;29;20404;-59
2022/08/01 06:41:06;;;;;;;5.30;4.80;;;21.60;99.90;;;22.10;90.47;101714.88;4882106;29;20041;-59
2022/08/01 06:43:35;;;;;;;7.95;5.20;;;21.70;99.90;;;22.14;89.72;101713.81;4882255;29;20073;-58
2022/08/01 06:46:05;;;;;;;6.28;4.78;;;21.80;99.90;;;22.08;90.10;101720.34;4882544;29;20053;-59
2022/08/01 06:48:35;;;;;;;8.10;5.45;;;21.70;99.90;;;22.07;90.23;101732.03;4882474;29;20483;-59
2022/08/01 06:51:09;;;;;;;5.47;4.97;;;21.70;99.90;;;22.15;89.70;101727.22;4882128;29;20052;-59
2022/08/01 06:53:39;;;;;;;5.93;4.88;;;21.80;99.90;;;22.08;89.87;101725.72;4882368;29;20491;-59
2022/08/01 06:56:09;;;;;;;6.45;5.28;;;21.70;99.90;;;21.93;90.20;101699.34;4882283;29;20384;-59
2022/08/01 06:58:38;;;;;;;5.57;5.07;;;21.80;99.90;;;22.16;89.80;101731.69;4881954;29;20085;-59
2022/08/01 07:01:07;;;;;;;6.90;5.55;;;21.80;99.90;;;22.19;90.26;101731.56;4882081;29;20470;-60
2022/08/01 07:03:36;;;;;;;7.38;5.07;;;21.80;99.90;;;22.23;90.44;101735.91;4881987;29;20052;-63
2022/08/01 07:06:23;;;;;;;8.10;6.45;;;21.90;99.90;;;22.13;90.00;101742.59;4882106;29;20072;-61
2022/08/01 07:08:52;;;;;;;8.65;6.82;;;21.80;99.90;;;22.17;90.72;101730.75;4881885;29;20049;-60
2022/08/01 07:11:21;;;;;;;11.60;6.80;;;21.80;99.90;;;22.26;90.36;101746.56;4882303;29;20047;-60
2022/08/01 07:13:49;;;;;;;12.52;7.45;;;21.90;99.90;;;22.27;90.21;101747.44;4881740;29;20045;-61
2022/08/01 07:16:19;;;;;;;12.80;7.45;;;21.90;99.90;;;22.29;90.07;101740.19;4881704;29;20459;-61
2022/08/01 07:18:47;;;;;;;11.07;8.13;;;21.90;99.90;;;22.36;90.03;101750.66;4881924;29;20135;-61
2022/08/01 07:21:16;;;;;;;13.98;7.22;;;22.00;99.90;;;22.45;89.43;101744.91;4881757;29;20562;-61
2022/08/01 07:24:05;;;;;;;14.27;7.38;;;22.10;99.90;;;22.39;88.67;101742.47;4881887;29;20505;-60
2022/08/01 07:26:41;;;;;;;17.52;7.57;;;22.10;99.90;;;22.37;88.66;101744.34;4881630;29;20048;-62
2022/08/01 07:29:23;;;;;;;16.60;8.20;;;22.10;99.90;;;22.43;88.65;101754.88;4881857;29;20045;-59
2022/08/01 07:31:54;;;;;;;13.80;8.05;;;22.10;99.90;;;22.49;88.10;101750.19;4882071;29;20049;-61
2022/08/01 07:34:23;;;;;;;15.00;8.35;;;22.10;99.90;;;22.52;87.26;101763.53;4880241;29;20510;-62
2022/08/01 07:36:52;;;;;;;15.60;7.97;;;22.20;99.90;;;22.54;87.12;101750.88;4881362;29;20487;-62
2022/08/01 07:39:20;;;;;;;13.07;8.20;;;22.20;99.90;;;22.58;86.94;101752.53;4881304;29;20049;-64
2022/08/01 07:41:48;;;;;;;13.32;8.15;;;22.20;99.90;;;22.53;86.42;101743.75;4881445;29;20041;-59
2022/08/01 07:44:35;;;;;;;18.08;9.30;;;22.20;99.90;;;22.46;85.61;101726.91;4881319;29;20049;-59
2022/08/01 07:47:05;;;;;;;17.63;8.98;;;22.30;99.90;;;22.66;85.44;101766.63;4881552;29;20575;-59
2022/08/01 07:49:34;;;;;;;16.88;9.60;;;22.30;99.90;;;22.59;85.64;101765.13;4881136;29;20045;-60
2022/08/01 07:52:08;;;;;;;15.25;10.10;;;22.30;99.90;;;22.63;84.98;101764.06;4881412;29;20570;-60
2022/08/01 07:54:37;;;;;;;19.17;10.38;;;22.30;99.90;;;22.56;84.94;101763.38;4880979;29;20160;-59
2022/08/01 07:57:05;;;;;;;16.50;9.30;;;22.20;99.90;;;22.65;84.86;101764.88;4881073;29;20104;-60
2022/08/01 07:59:33;;;;;;;18.05;9.38;;;22.30;99.90;;;22.70;85.35;101765.56;4881112;29;20037;-59
2022/08/01 08:02:02;;;;;;;21.80;8.75;;;22.40;99.90;;;22.76;84.90;101776.09;4881307;29;20062;-59
2022/08/01 08:04:32;;;;;;;15.73;8.35;;;22.40;99.90;;;22.84;84.77;101773.97;4881103;29;20056;-59
2022/08/01 08:07:00;;;;;;;13.45;8.45;;;22.50;99.90;;;22.88;84.81;101749.47;4880731;29;20073;-59
2022/08/01 08:09:28;;;;;;;18.45;8.43;;;22.70;99.90;;;23.16;83.73;101778.91;4881221;29;20088;-59
2022/08/01 08:11:57;;;;;;;13.70;8.05;;;22.80;99.90;;;23.27;83.40;101779.34;4881192;29;20041;-61
2022/08/01 08:14:25;;;;;;;18.15;8.27;;;23.00;99.90;;;23.31;82.11;101781.00;4881435;29;20048;-63
2022/08/01 08:17:00;;;;;;;16.00;7.80;;;23.00;99.90;;;23.39;80.84;101791.47;4880952;29;20112;-62
2022/08/01 08:19:33;;;;;;;12.82;6.95;;;23.10;99.90;;;23.47;78.56;101795.63;4880846;29;20045;-61
2022/08/01 08:22:06;;;;;;;11.90;7.32;;;23.20;99.90;;;23.54;78.32;101780.91;4880366;29;20049;-61
2022/08/01 08:24:35;;;;;;;12.30;6.57;;;23.30;99.90;;;23.41;77.98;101741.88;4880494;29;20065;-61
2022/08/01 08:27:13;;;;;;;12.00;6.47;;;23.40;99.90;;;23.80;76.85;101798.69;4880716;29;20483;-61
2022/08/01 08:29:41;;;;;;;12.30;6.18;;;23.50;99.90;;;23.79;75.27;101800.50;4880398;29;20041;-61
2022/08/01 08:32:10;;;;;;;13.85;5.85;;;23.50;99.90;;;23.75;74.38;101788.06;4880291;29;20048;-61
2022/08/01 08:34:40;;;;;;;12.65;6.22;;;23.50;99.90;;;23.57;74.25;101748.34;4880289;29;20053;-61
2022/08/01 08:37:08;;;;;;;11.40;5.75;;;23.60;99.90;;;23.97;74.63;101796.97;4880562;29;20069;-61
2022/08/01 08:39:37;;;;;;;12.48;5.72;;;23.60;99.90;;;24.09;74.47;101801.88;4880446;29;20109;-61
2022/08/01 08:42:10;;;;;;;9.13;5.10;;;23.80;99.90;;;24.31;73.82;101801.78;4880097;29;20049;-61
2022/08/01 08:44:41;;;;;;;7.95;4.22;;;24.00;99.90;;;24.44;73.03;101807.47;4879083;29;20497;-61
2022/08/01 08:47:13;;;;;;;7.13;4.82;;;24.10;99.90;;;24.48;72.04;101806.38;4880660;29;20109;-61
2022/08/01 08:49:54;;;;;;;12.80;5.00;;;24.20;99.90;;;24.48;71.48;101811.78;4880289;29;20045;-61
2022/08/01 08:52:24;;;;;;;12.07;4.43;;;24.20;99.90;;;24.53;70.68;101817.84;4878369;29;20551;-61
2022/08/01 08:54:53;;;;;;;8.77;4.13;;;24.20;99.90;;;24.46;69.14;101809.16;4879859;29;20511;-61
2022/08/01 08:57:22;;;;;;;8.85;4.50;;;24.10;99.90;;;24.54;69.30;101816.91;4879916;29;20049;-61
2022/08/01 08:59:53;;;;;;;9.55;5.10;;;24.20;99.90;;;24.41;70.08;101800.38;4879814;29;20089;-61
2022/08/01 09:02:22;;;;;;;9.57;4.35;;;24.20;99.90;;;24.54;69.37;101819.63;4879989;29;20396;-61
2022/08/01 09:04:53;;;;;;;8.63;3.85;;;24.20;99.90;;;24.53;68.75;101823.25;4880039;29;20072;-61
2022/08/01 09:07:22;;;;;;;;;;;24.30;99.90;;;24.58;69.21;101826.66;4880265;29;20105;-61
2022/08/01 09:09:51;;;;;;;10.25;4.20;;;24.40;99.90;;;24.62;69.07;101822.84;4880059;29;19927;-61
2022/08/01 09:12:21;;;;;;;9.23;4.43;;;24.30;99.90;;;24.59;69.17;101831.09;4879952;29;20045;-61
2022/08/01 09:14:53;;;;;;;8.23;4.18;;;24.30;99.90;;;24.64;69.18;101829.06;4879681;29;20056;-62
2022/08/01 09:17:22;;;;;;;10.13;4.20;;;24.40;99.90;;;24.67;68.25;101834.31;4879847;29;20049;-61
2022/08/01 09:19:55;;;;;;;7.38;3.63;;;24.40;99.90;;;24.79;68.19;101831.06;4879581;29;20582;-61
2022/08/01 09:22:26;;;;;;;9.60;4.53;;;24.50;99.90;;;24.96;68.16;101828.44;4880060;29;20041;-61
2022/08/01 09:25:01;;;;;;;6.80;3.83;;;24.60;99.90;;;25.14;67.58;101834.78;4879391;29;20052;-61
2022/08/01 09:27:30;;;;;;;8.07;3.78;;;24.80;99.90;;;25.14;65.94;101841.09;4879757;29;20080;-61
2022/08/01 09:30:11;;;;;;;9.05;4.00;;;24.80;99.90;;;25.15;65.99;101834.69;4879679;29;20384;-61
2022/08/01 09:32:55;;;;;;;10.38;3.80;;;24.90;99.90;;;25.24;66.02;101827.97;4879404;29;20049;-61
2022/08/01 09:35:28;;;;;;;10.13;4.30;;;24.90;99.90;;;25.35;64.69;101831.00;4879740;29;20045;-61
2022/08/01 09:38:16;;;;;;;10.10;4.03;;;25.10;99.90;;;25.34;64.51;101840.94;4879699;29;20144;-61
2022/08/01 09:40:51;;;;;;;8.25;3.80;;;25.10;99.90;;;25.20;63.38;101832.66;4879244;29;20045;-61
2022/08/01 09:43:22;;;;;;;12.48;4.45;;;25.00;99.90;;;25.31;64.09;101846.53;4879728;29;20136;-61
2022/08/01 09:45:52;;;;;;;9.05;4.22;;;25.00;99.90;;;25.54;65.14;101848.13;4879520;29;20057;-61
2022/08/01 09:48:24;;;;;;;8.40;3.55;;;25.30;99.90;;;25.68;63.08;101843.75;4879489;29;20045;-61
2022/08/01 09:50:59;;;;;;;7.93;3.40;;;25.40;99.90;;;25.69;61.01;101844.63;4878239;29;20049;-61
2022/08/01 09:53:47;;;;;;;8.10;3.53;;;25.50;99.90;;;25.79;61.18;101851.31;4879485;29;20136;-61
2022/08/01 09:56:21;;;;;;;6.88;3.30;;;25.50;99.90;;;25.79;59.97;101848.63;4879066;29;20053;-62
2022/08/01 09:58:55;;;;;;;7.32;3.90;;;25.60;99.90;;;25.97;60.89;101846.78;4879009;29;20467;-61
2022/08/01 10:01:28;;;;;;;6.18;3.40;;;25.70;99.90;;;25.99;59.50;101848.47;4879369;29;20052;-63
2022/08/01 10:04:11;;;;;;;7.72;3.63;;;25.70;99.90;;;25.98;58.38;101843.97;4882770;29;20104;-61
2022/08/01 10:06:44;;;;;;;8.10;3.63;;;25.80;99.90;;;26.20;59.78;101854.59;4883465;29;20056;-62
2022/08/01 10:09:14;;;;;;;9.88;4.00;;;25.90;99.90;;;26.14;58.29;101852.22;4883204;29;20037;-62
2022/08/01 10:11:44;;;;;;;9.60;3.20;;;25.90;99.90;;;26.20;59.23;101852.78;4882843;29;20056;-61
2022/08/01 10:14:14;;;;;;;8.45;4.50;;;26.00;99.90;;;26.14;58.19;101850.38;4881739;29;20053;-61
2022/08/01 10:16:48;;;;;;;7.28;3.10;;;25.90;99.90;;;26.05;58.59;101845.44;4882793;29;20124;-61
2022/08/01 10:19:24;;;;;;;6.20;3.20;;;25.80;99.90;;;26.15;58.13;101845.84;4883217;29;20052;-62
2022/08/01 10:21:58;;;;;;;9.68;3.83;;;25.90;99.90;;;25.97;57.24;101830.50;4882430;29;20488;-61
2022/08/01 10:24:30;;;;;;;9.13;3.80;;;25.90;99.90;;;26.08;57.91;101845.28;4882713;29;20448;-61
2022/08/01 10:27:05;;;;;;;9.07;3.90;;;25.80;99.90;;;25.92;58.44;101822.59;4882414;29;20049;-61
2022/08/01 10:29:42;;;;;;;8.75;3.90;;;25.80;99.90;;;26.10;58.77;101847.91;4882880;29;20148;-62
2022/08/01 10:32:31;;;;;;;7.95;3.78;;;25.80;99.90;;;26.18;58.43;101851.97;4882369;29;20477;-61